Main page
METAR-TAF:

METAR-TAF

Airports :

Chinggis Khaan International Airport

Ulan Bator, Mongolia

latitude: 47-55N, longitude: 106-52E, elevation: 1306 m

Current weather observation

The report was made 27 minutes ago, at 23:00 UTC
Wind 2 kt from variable directions
Temperature -25°C
Humidity 76%
Pressure 1018 hPa
Visibility: 5000 m
smoke

METAR: ZMUB 212300Z VRB01MPS 5000NW FU NSC M25/M28 Q1018 NOSIG RMK QFE656.0 71 NT

Time: 07:27 (23:27 UTC)

Forecast

The report was made 6 hours and 32 minutes ago, at 16:55 UTC
Forecast valid from 21 at 18 UTC to 22 at 24 UTC
Wind 4 kt from variable directions
Visibility: 6000 m
Scattered clouds at a height of 10000 ft
Becoming
from 21 at 23 UTC to 22 at 01 UTC
Visibility: 4000 m
smoke
Becoming
from 22 at 04 UTC to 22 at 06 UTC
Visibility: 6000 m

TAF: ZMUB 211655Z 2118/2224 VRB02MPS 6000 SCT100 TNM27/2123Z TXM07/2207Z BECMG 2123/2201 4000 FU BECMG 2204/2206 6000

Weather observations and forecasts of more than 4000 airports (METAR and TAF reports).

The available stations are represented by yellow and red dots on the map.

Hover mouse over dot to see the name of the station.

Then click to see weather observations and forecasts.

To change the map : click on the green buttons with a black cross to zoom in, on the green button with a dash to zoom out, or on the green arrows for adjacent maps.


METAR-TAF: